»·PEaware :: N5435W KSMX-KBFL

N5435W :: KSMX-KBFL

FLIGHT INFORMATION

Flight Status: Arrived
Operator: Privately registered:
United States
More flights under this callsign
Pilot: Anonymous 23155 (23155)
Aircraft: PIPER PA-28R-201 ARROW
(P28R)
More flights by this aircraft type
Origin: KSMX Santa Maria Pub/Capt Hancock
United States
Destination: KBFL Meadows
United States
More flights between these airports :: More routes between these airports
Route: KSMX, FLW, KBFL
File this flight plan on PilotEdge
Remarks: CAT 5 Rating
Altitude:
(Current/Filed)
7,500ft
Speed:
(Current/Filed)
125kts
Departed: 01-Feb-19 09:43 PM
Arrived: 01-Feb-19 10:26 PM
Distance/Time
Traveled:
76nm/0:42
Distance/Time
To Go:
Arrived

Flight Plot

Page will automatically refresh every two minutes.

Flight plan parsing failed; only flown route is shown


Map Options




Map Legend


Flown Route
Filed Route
Departure Airport
Arrival Airport
Navaid (VOR, NDB)
Fix

Horizontal Profiles

Position Reports

Time Latitude Longitude Heading Altitude Ground
Speed
01-Feb-19 21:33 34.906262 -120.457975 312 264ft 0kts
01-Feb-19 21:34 34.906422 -120.458444 250 264ft 14kts
01-Feb-19 21:35 34.906251 -120.458665 225 264ft 0kts
01-Feb-19 21:36 34.906251 -120.458665 225 264ft 0kts
01-Feb-19 21:37 34.906251 -120.458665 225 264ft 0kts
01-Feb-19 21:38 34.906251 -120.458665 225 264ft 0kts
01-Feb-19 21:39 34.905994 -120.459068 267 264ft 15kts
01-Feb-19 21:40 34.908815 -120.463509 221 264ft 0kts
01-Feb-19 21:41 34.908463 -120.463885 221 264ft 18kts
01-Feb-19 21:42 34.896149 -120.450280 137 912ft 72kts
01-Feb-19 21:43 34.882057 -120.432856 89 2028ft 82kts
01-Feb-19 21:44 34.893997 -120.405522 67 3111ft 94kts
01-Feb-19 21:45 34.904152 -120.376223 65 4195ft 95kts
01-Feb-19 21:46 34.915090 -120.347040 65 5229ft 94kts
01-Feb-19 21:47 34.925648 -120.318940 64 6233ft 91kts
01-Feb-19 21:48 34.936536 -120.291073 63 7171ft 91kts
01-Feb-19 21:49 34.949480 -120.259285 63 7586ft 123kts
01-Feb-19 21:50 34.965363 -120.220132 63 7493ft 124kts
01-Feb-19 21:51 34.980495 -120.182763 64 7305ft 123kts
01-Feb-19 21:52 34.995435 -120.145713 64 7495ft 120kts
01-Feb-19 21:53 35.010713 -120.107668 64 7477ft 129kts
01-Feb-19 21:54 35.026313 -120.068739 63 7353ft 121kts
01-Feb-19 21:55 35.041868 -120.029921 63 6984ft 129kts
01-Feb-19 21:56 35.057693 -119.990076 64 7112ft 128kts
01-Feb-19 21:57 35.074357 -119.948001 63 6936ft 134kts
01-Feb-19 21:58 35.090249 -119.907807 63 7130ft 129kts
01-Feb-19 21:59 35.105553 -119.868981 64 7421ft 127kts
01-Feb-19 22:00 35.121025 -119.829560 64 7492ft 135kts
01-Feb-19 22:01 35.137416 -119.787715 63 7453ft 133kts
01-Feb-19 22:02 35.153371 -119.746879 64 7101ft 132kts
01-Feb-19 22:03 35.169227 -119.706251 64 6616ft 131kts
01-Feb-19 22:04 35.184901 -119.665927 64 6168ft 131kts
01-Feb-19 22:05 35.200461 -119.625773 64 5754ft 130kts
01-Feb-19 22:06 35.215820 -119.586033 64 5223ft 129kts
01-Feb-19 22:07 35.229914 -119.546052 67 4604ft 127kts
01-Feb-19 22:08 35.243299 -119.505936 67 4022ft 126kts
01-Feb-19 22:09 35.256534 -119.466160 67 3573ft 129kts
01-Feb-19 22:10 35.270310 -119.424432 67 3763ft 133kts
01-Feb-19 22:11 35.284331 -119.381708 67 3548ft 134kts
01-Feb-19 22:12 35.297481 -119.341621 68 3708ft 125kts
01-Feb-19 22:13 35.310400 -119.302153 68 3831ft 125kts
01-Feb-19 22:14 35.323336 -119.262431 68 3941ft 125kts
01-Feb-19 22:15 35.336180 -119.222857 68 4043ft 125kts
01-Feb-19 22:16 35.349439 -119.181930 68 3018ft 143kts
01-Feb-19 22:17 35.363561 -119.138389 68 1649ft 128kts
01-Feb-19 22:18 35.376659 -119.101439 61 1562ft 109kts
01-Feb-19 22:19 35.393202 -119.073744 11 1715ft 98kts
01-Feb-19 22:20 35.416696 -119.090208 322 1502ft 98kts
01-Feb-19 22:21 35.435917 -119.111968 314 1452ft 95kts
01-Feb-19 22:22 35.453964 -119.110074 54 1246ft 85kts
01-Feb-19 22:23 35.457359 -119.086436 118 908ft 72kts
01-Feb-19 22:24 35.443579 -119.067878 135 507ft 55kts
01-Feb-19 22:25 35.441102 -119.062747 136 499ft 21kts
01-Feb-19 22:26 35.437396 -119.057600 66 496ft 12kts

Navigation Log

Ident Type
Flight plan parsing failed, navigation log unavailable